Time;durP1;ratioP1;P1;durP2;ratioP2;P2;SDS_P1;SDS_P2;PMS_P1;PMS_P2;Temp;Humidity;BMP_temperature;BMP_pressure;BME280_temperature;BME280_humidity;BME280_pressure;Samples;Min_cycle;Max_cycle;Signal;HPM_P1;HPM_P2
2021/06/20 00:00:27;;;;;;;0.43;0.43;;;26.30;95.00;;;;;;4418942;32;20159;-75
2021/06/20 00:02:53;;;;;;;0.98;0.55;;;26.20;95.30;;;;;;4422264;32;20444;-76
2021/06/20 00:05:23;;;;;;;0.40;0.40;;;26.20;95.60;;;;;;4419429;32;20491;-74
2021/06/20 00:07:50;;;;;;;2.20;0.90;;;26.20;95.50;;;;;;4419062;32;20070;-73
2021/06/20 00:10:19;;;;;;;4.90;1.48;;;26.00;95.70;;;;;;4419339;32;20526;-74
2021/06/20 00:12:45;;;;;;;1.77;0.82;;;26.00;95.80;;;;;;4421526;32;20127;-75
2021/06/20 00:15:14;;;;;;;0.82;0.77;;;25.90;95.80;;;;;;4422002;32;20078;-75
2021/06/20 00:17:40;;;;;;;0.57;0.57;;;26.00;95.70;;;;;;4420599;32;20066;-75
2021/06/20 00:20:07;;;;;;;1.02;0.80;;;25.90;95.60;;;;;;4419164;32;20515;-75
2021/06/20 00:22:33;;;;;;;2.08;0.90;;;25.90;96.00;;;;;;4421115;32;20110;-75
2021/06/20 00:24:58;;;;;;;3.15;0.62;;;25.80;95.90;;;;;;4421317;32;20073;-74
2021/06/20 00:27:24;;;;;;;0.68;0.55;;;25.80;95.90;;;;;;4419550;32;20077;-75
2021/06/20 00:29:50;;;;;;;2.65;1.23;;;25.80;96.20;;;;;;4420750;32;20062;-75
2021/06/20 00:32:15;;;;;;;1.60;0.95;;;25.70;96.20;;;;;;4419222;32;20082;-75
2021/06/20 00:34:41;;;;;;;0.32;0.32;;;25.70;96.30;;;;;;4421627;32;20138;-75
2021/06/20 00:37:06;;;;;;;0.32;0.32;;;25.70;96.50;;;;;;4418620;32;20187;-75
2021/06/20 00:39:33;;;;;;;1.73;1.33;;;25.70;96.70;;;;;;4419528;32;20507;-75
2021/06/20 00:41:58;;;;;;;0.45;0.43;;;25.70;96.70;;;;;;4419394;32;20071;-74
2021/06/20 00:44:24;;;;;;;3.62;0.50;;;25.70;96.60;;;;;;4420330;32;20081;-75
2021/06/20 00:46:49;;;;;;;2.70;0.98;;;25.60;96.80;;;;;;4419258;32;20081;-75
2021/06/20 00:49:15;;;;;;;1.60;0.95;;;25.60;96.90;;;;;;4418868;32;20087;-74
2021/06/20 00:51:41;;;;;;;10.43;1.45;;;25.50;97.10;;;;;;4420027;32;20557;-75
2021/06/20 00:54:06;;;;;;;1.12;0.57;;;25.50;97.20;;;;;;4419917;32;20065;-75
2021/06/20 00:56:33;;;;;;;0.50;0.50;;;25.50;97.30;;;;;;4419307;32;20116;-74
2021/06/20 00:59:03;;;;;;;0.45;0.45;;;25.50;97.60;;;;;;4417901;32;20086;-75
2021/06/20 01:01:31;;;;;;;2.85;0.60;;;25.40;97.90;;;;;;4422499;32;20089;-75
2021/06/20 01:03:57;;;;;;;0.90;0.62;;;25.40;97.90;;;;;;4418891;32;20061;-75
2021/06/20 01:06:23;;;;;;;0.57;0.57;;;25.40;97.90;;;;;;4418776;32;20093;-74
2021/06/20 01:08:49;;;;;;;1.50;0.43;;;25.40;98.10;;;;;;4418066;32;20565;-75
2021/06/20 01:11:14;;;;;;;7.68;1.27;;;25.40;98.20;;;;;;4418815;32;20074;-74
2021/06/20 01:13:40;;;;;;;0.47;0.47;;;25.30;98.30;;;;;;4419502;32;20132;-75
2021/06/20 01:16:05;;;;;;;3.72;1.85;;;25.30;98.80;;;;;;4420258;32;20130;-75
2021/06/20 01:18:31;;;;;;;1.15;0.93;;;25.10;98.80;;;;;;4419470;32;20070;-75
2021/06/20 01:20:56;;;;;;;1.55;0.47;;;25.20;99.40;;;;;;4417828;32;20079;-75
2021/06/20 01:23:22;;;;;;;0.68;0.65;;;25.00;99.40;;;;;;4418769;32;20105;-75
2021/06/20 01:25:49;;;;;;;1.30;1.00;;;25.00;99.50;;;;;;4419405;32;20077;-75
2021/06/20 01:28:15;;;;;;;0.52;0.52;;;25.00;99.60;;;;;;4417180;32;20073;-74
2021/06/20 01:30:45;;;;;;;1.15;0.73;;;25.10;99.50;;;;;;4418781;32;20077;-75
2021/06/20 01:33:11;;;;;;;0.60;0.60;;;25.00;99.70;;;;;;4418695;32;20486;-75
2021/06/20 01:35:37;;;;;;;0.98;0.62;;;25.00;99.90;;;;;;4419485;32;20110;-75
2021/06/20 01:38:05;;;;;;;0.40;0.40;;;24.90;99.90;;;;;;4416907;32;20061;-75
2021/06/20 01:40:31;;;;;;;1.87;0.80;;;24.80;99.90;;;;;;4422242;32;20054;-74
2021/06/20 01:42:57;;;;;;;0.57;0.55;;;24.80;99.90;;;;;;4417159;32;20580;-74
2021/06/20 01:45:24;;;;;;;0.88;0.85;;;24.80;99.90;;;;;;4418380;32;20480;-74
2021/06/20 01:47:53;;;;;;;0.75;0.65;;;24.80;99.90;;;;;;4418737;32;20076;-74
2021/06/20 01:50:19;;;;;;;3.70;1.25;;;24.70;99.90;;;;;;4417870;32;20069;-74
2021/06/20 01:52:45;;;;;;;0.52;0.52;;;24.70;99.90;;;;;;4419195;32;20131;-74
2021/06/20 01:55:13;;;;;;;0.45;0.45;;;24.70;99.90;;;;;;4417881;32;20514;-74
2021/06/20 01:57:40;;;;;;;0.47;0.43;;;24.70;99.90;;;;;;4418371;32;20097;-74
2021/06/20 02:00:09;;;;;;;0.80;0.65;;;24.70;99.90;;;;;;4417365;32;20120;-74
2021/06/20 02:02:35;;;;;;;1.25;1.15;;;24.70;99.90;;;;;;4420664;32;20128;-74
2021/06/20 02:05:00;;;;;;;1.12;0.65;;;24.70;99.90;;;;;;4417054;32;20077;-74
2021/06/20 02:07:27;;;;;;;0.60;0.60;;;24.70;99.90;;;;;;4419046;32;20426;-74
2021/06/20 02:09:53;;;;;;;1.05;0.98;;;24.60;99.90;;;;;;4417366;32;20078;-74
2021/06/20 02:12:21;;;;;;;0.57;0.57;;;24.60;99.90;;;;;;4416764;32;20069;-75
2021/06/20 02:14:47;;;;;;;0.68;0.60;;;24.60;99.90;;;;;;4417985;32;20061;-74
2021/06/20 02:17:22;;;;;;;0.70;0.70;;;24.60;99.90;;;;;;4417535;32;20553;-75
2021/06/20 02:19:49;;;;;;;2.42;1.08;;;24.50;99.90;;;;;;4420432;32;20069;-75
2021/06/20 02:22:14;;;;;;;1.35;1.25;;;24.50;99.90;;;;;;4417325;32;20113;-75
2021/06/20 02:24:40;;;;;;;0.65;0.60;;;24.50;99.90;;;;;;4418780;32;20062;-74
2021/06/20 02:27:09;;;;;;;1.17;0.73;;;24.60;99.90;;;;;;4416421;32;20081;-74
2021/06/20 02:29:35;;;;;;;0.43;0.43;;;24.60;99.90;;;;;;4419554;32;20136;-74
2021/06/20 02:32:00;;;;;;;0.93;0.65;;;24.60;99.90;;;;;;4417002;32;20128;-74
2021/06/20 02:34:26;;;;;;;4.37;1.45;;;24.70;99.90;;;;;;4418477;32;20513;-74
2021/06/20 02:36:51;;;;;;;0.50;0.50;;;24.50;99.90;;;;;;4418946;32;20138;-75
2021/06/20 02:39:17;;;;;;;0.62;0.60;;;24.50;99.90;;;;;;4417031;32;20070;-75
2021/06/20 02:41:46;;;;;;;0.93;0.70;;;24.40;99.90;;;;;;4419127;32;20065;-74
2021/06/20 02:44:11;;;;;;;5.07;1.52;;;24.40;99.90;;;;;;4417272;32;20090;-74
2021/06/20 02:46:37;;;;;;;2.40;1.45;;;24.30;99.90;;;;;;4418443;32;20505;-75
2021/06/20 02:49:03;;;;;;;0.88;0.80;;;24.30;99.90;;;;;;4417190;32;20054;-75
2021/06/20 02:51:29;;;;;;;1.27;0.75;;;24.30;99.90;;;;;;4418765;32;20102;-75
2021/06/20 02:53:55;;;;;;;0.98;0.52;;;24.20;99.90;;;;;;4416976;32;20133;-75
2021/06/20 02:56:20;;;;;;;0.52;0.52;;;24.20;99.90;;;;;;4417292;32;20155;-75
2021/06/20 02:58:46;;;;;;;0.47;0.45;;;24.20;99.90;;;;;;4419401;32;20066;-75
2021/06/20 03:01:11;;;;;;;0.60;0.60;;;24.20;99.90;;;;;;4419851;32;20070;-75
2021/06/20 03:03:37;;;;;;;0.62;0.50;;;24.20;99.90;;;;;;4422002;32;20070;-75
2021/06/20 03:06:02;;;;;;;4.47;1.58;;;24.20;99.90;;;;;;4419057;32;20070;-75
2021/06/20 03:08:28;;;;;;;0.68;0.57;;;24.20;99.90;;;;;;4420424;32;20655;-75
2021/06/20 03:10:54;;;;;;;0.43;0.43;;;24.20;99.90;;;;;;4420282;32;20062;-75
2021/06/20 03:13:19;;;;;;;0.82;0.70;;;24.20;99.90;;;;;;4419292;32;20070;-75
2021/06/20 03:15:46;;;;;;;0.35;0.35;;;24.10;99.90;;;;;;4420529;32;20506;-76
2021/06/20 03:18:11;;;;;;;1.40;0.93;;;24.20;99.90;;;;;;4419433;32;20073;-75
2021/06/20 03:20:37;;;;;;;1.83;1.10;;;24.10;99.90;;;;;;4421104;32;20069;-75
2021/06/20 03:23:04;;;;;;;2.65;1.65;;;24.00;99.90;;;;;;4420443;32;20075;-75
2021/06/20 03:25:30;;;;;;;1.33;1.15;;;23.90;99.90;;;;;;4422966;32;20097;-74
2021/06/20 03:27:55;;;;;;;0.50;0.50;;;23.90;99.90;;;;;;4418515;32;20480;-76
2021/06/20 03:30:21;;;;;;;6.15;1.33;;;23.90;99.90;;;;;;4422550;32;20077;-75
2021/06/20 03:32:47;;;;;;;0.55;0.52;;;23.80;99.90;;;;;;4421990;32;20077;-75
2021/06/20 03:35:13;;;;;;;3.72;1.58;;;23.70;99.90;;;;;;4420472;32;20449;-75
2021/06/20 03:37:38;;;;;;;0.55;0.55;;;23.70;99.90;;;;;;4420790;32;20459;-75
2021/06/20 03:40:04;;;;;;;0.52;0.52;;;23.70;99.90;;;;;;4421983;32;20066;-75
2021/06/20 03:42:30;;;;;;;1.10;0.80;;;23.80;99.90;;;;;;4421956;32;20065;-75
2021/06/20 03:44:55;;;;;;;0.50;0.50;;;23.80;99.90;;;;;;4419680;32;20125;-75
2021/06/20 03:47:21;;;;;;;0.43;0.43;;;23.90;99.90;;;;;;4419835;32;20558;-75
2021/06/20 03:49:46;;;;;;;0.85;0.80;;;23.90;99.90;;;;;;4420108;32;20077;-75
2021/06/20 03:52:12;;;;;;;1.52;0.85;;;24.00;99.90;;;;;;4419760;32;20120;-75
2021/06/20 03:54:37;;;;;;;0.82;0.60;;;23.90;99.90;;;;;;4420624;32;20065;-75
2021/06/20 03:57:03;;;;;;;13.00;1.02;;;23.90;99.90;;;;;;4417899;32;20091;-75
2021/06/20 03:59:29;;;;;;;1.33;0.82;;;23.80;99.90;;;;;;4421327;32;20474;-75
2021/06/20 04:01:55;;;;;;;0.30;0.30;;;23.80;99.90;;;;;;4421261;32;20057;-75
2021/06/20 04:04:21;;;;;;;2.42;0.88;;;23.90;99.90;;;;;;4419862;32;20089;-75
2021/06/20 04:06:47;;;;;;;0.50;0.50;;;24.00;99.90;;;;;;4419598;32;20462;-75
2021/06/20 04:09:12;;;;;;;0.47;0.40;;;24.00;99.90;;;;;;4419111;32;20078;-75
2021/06/20 04:11:38;;;;;;;0.95;0.70;;;24.00;99.90;;;;;;4420912;32;20134;-75
2021/06/20 04:14:03;;;;;;;1.10;1.00;;;24.00;99.90;;;;;;4419241;32;20134;-75
2021/06/20 04:16:29;;;;;;;0.65;0.65;;;24.00;99.90;;;;;;4420338;32;20157;-75
2021/06/20 04:18:55;;;;;;;0.80;0.80;;;24.00;99.90;;;;;;4419202;32;20090;-75
2021/06/20 04:21:20;;;;;;;2.15;0.95;;;24.00;99.90;;;;;;4419322;32;20081;-75
2021/06/20 04:23:48;;;;;;;1.80;1.62;;;24.00;99.90;;;;;;4419336;32;20089;-75
2021/06/20 04:26:13;;;;;;;1.37;0.95;;;24.10;99.90;;;;;;4419504;32;20078;-75
2021/06/20 04:28:40;;;;;;;0.45;0.45;;;24.20;99.90;;;;;;4420017;32;20409;-75
2021/06/20 04:31:06;;;;;;;1.12;0.90;;;24.20;99.90;;;;;;4418289;32;20066;-76
2021/06/20 04:33:31;;;;;;;0.65;0.60;;;24.20;99.90;;;;;;4420846;32;20120;-75
2021/06/20 04:35:58;;;;;;;0.50;0.50;;;24.30;99.90;;;;;;4418203;32;20084;-75
2021/06/20 04:38:23;;;;;;;1.02;0.98;;;24.40;99.90;;;;;;4418489;32;20189;-75
2021/06/20 04:40:51;;;;;;;2.08;1.23;;;24.40;99.90;;;;;;4419489;32;20515;-75
2021/06/20 04:44:47;;;;;;;0.70;0.70;;;24.50;99.90;;;;;;4417554;32;20077;-75
2021/06/20 04:46:02;;;;;;;7.90;0.85;;;24.50;99.90;;;;;;4411477;32;20086;-75
2021/06/20 04:48:28;;;;;;;1.10;0.85;;;24.60;99.90;;;;;;4420492;32;20103;-75
2021/06/20 04:50:54;;;;;;;0.80;0.50;;;24.70;99.90;;;;;;4419986;32;20069;-75
2021/06/20 04:53:19;;;;;;;1.02;0.68;;;24.70;99.90;;;;;;4418439;32;20090;-75
2021/06/20 04:55:45;;;;;;;0.50;0.50;;;24.70;99.90;;;;;;4419975;32;20376;-75
2021/06/20 04:58:10;;;;;;;0.93;0.60;;;24.70;99.90;;;;;;4418833;32;20085;-75
2021/06/20 05:00:36;;;;;;;3.97;1.08;;;24.80;99.90;;;;;;4419699;32;20073;-76
2021/06/20 05:03:02;;;;;;;2.62;1.05;;;24.80;99.90;;;;;;4422116;32;20098;-75
2021/06/20 05:05:27;;;;;;;1.23;0.88;;;24.90;99.90;;;;;;4420412;32;20061;-76
2021/06/20 05:07:52;;;;;;;0.95;0.82;;;24.90;99.90;;;;;;4419016;32;20573;-75
2021/06/20 05:10:18;;;;;;;0.75;0.57;;;25.00;99.90;;;;;;4418567;32;20515;-75
2021/06/20 05:12:44;;;;;;;2.37;0.88;;;25.10;99.90;;;;;;4419203;32;20085;-75
2021/06/20 05:15:10;;;;;;;1.45;1.02;;;25.20;99.90;;;;;;4418484;32;20078;-75
2021/06/20 05:17:35;;;;;;;1.75;0.88;;;25.20;99.90;;;;;;4419564;32;20088;-75
2021/06/20 05:20:01;;;;;;;0.47;0.47;;;25.10;99.90;;;;;;4419856;32;20070;-76
2021/06/20 05:22:26;;;;;;;2.90;0.75;;;25.20;99.90;;;;;;4421231;32;20065;-75
2021/06/20 05:24:51;;;;;;;2.83;1.08;;;25.20;99.90;;;;;;4418497;32;20069;-75
2021/06/20 05:27:17;;;;;;;1.15;1.05;;;25.30;99.90;;;;;;4417971;32;20086;-75
2021/06/20 05:29:43;;;;;;;0.77;0.60;;;25.30;99.90;;;;;;4419650;32;20061;-76
2021/06/20 05:32:08;;;;;;;0.65;0.65;;;25.40;99.90;;;;;;4418080;32;20074;-75
2021/06/20 05:34:34;;;;;;;0.75;0.57;;;25.30;99.90;;;;;;4419018;32;20471;-75
2021/06/20 05:36:59;;;;;;;2.28;0.90;;;25.40;99.90;;;;;;4417984;32;20078;-75
2021/06/20 05:39:25;;;;;;;1.83;0.77;;;25.40;99.90;;;;;;4419138;32;20490;-75
2021/06/20 05:41:50;;;;;;;0.60;0.50;;;25.40;99.90;;;;;;4418282;32;20069;-75
2021/06/20 05:44:16;;;;;;;1.65;1.23;;;25.50;99.90;;;;;;4418879;32;20182;-76
2021/06/20 05:46:41;;;;;;;1.15;1.02;;;25.60;99.90;;;;;;4419751;32;20440;-75
2021/06/20 05:49:07;;;;;;;0.62;0.60;;;25.70;99.90;;;;;;4421262;32;20069;-76
2021/06/20 05:51:32;;;;;;;1.55;0.90;;;25.60;99.90;;;;;;4420867;32;20477;-75
2021/06/20 05:53:58;;;;;;;1.10;0.75;;;25.70;99.90;;;;;;4417146;32;20124;-75
2021/06/20 05:56:23;;;;;;;0.68;0.68;;;25.80;99.90;;;;;;4417534;32;20069;-76
2021/06/20 05:58:49;;;;;;;5.20;1.58;;;25.80;99.90;;;;;;4418048;32;20399;-75
2021/06/20 06:01:14;;;;;;;3.33;1.87;;;25.80;99.90;;;;;;4419318;32;20069;-76
2021/06/20 06:03:40;;;;;;;0.80;0.80;;;25.80;99.90;;;;;;4419081;32;20451;-75
2021/06/20 06:06:05;;;;;;;1.50;0.93;;;25.80;99.90;;;;;;4417564;32;20081;-75
2021/06/20 06:08:31;;;;;;;1.65;0.80;;;25.90;99.90;;;;;;4417961;32;20164;-76
2021/06/20 06:10:57;;;;;;;1.08;0.77;;;26.00;99.90;;;;;;4417653;32;20526;-75
2021/06/20 06:13:23;;;;;;;0.60;0.60;;;26.10;99.90;;;;;;4417752;32;20093;-76
2021/06/20 06:15:48;;;;;;;1.02;0.88;;;26.20;99.90;;;;;;4418641;32;20113;-75
2021/06/20 06:18:14;;;;;;;0.68;0.60;;;26.30;99.90;;;;;;4417032;32;20455;-76
2021/06/20 06:20:40;;;;;;;1.42;1.20;;;26.30;99.90;;;;;;4419252;32;20066;-76
2021/06/20 06:23:06;;;;;;;1.02;0.65;;;26.40;99.90;;;;;;4417046;32;20078;-76
2021/06/20 06:25:31;;;;;;;1.83;1.23;;;26.60;99.90;;;;;;4419008;32;20066;-76
2021/06/20 06:27:57;;;;;;;0.70;0.70;;;26.80;99.90;;;;;;4416269;32;20082;-75
2021/06/20 06:30:23;;;;;;;1.90;1.15;;;26.90;99.90;;;;;;4417080;32;20522;-75
2021/06/20 06:32:48;;;;;;;0.95;0.90;;;27.10;99.90;;;;;;4420102;32;20420;-76
2021/06/20 06:35:15;;;;;;;3.62;1.67;;;27.10;99.90;;;;;;4419693;32;20069;-75
2021/06/20 06:37:42;;;;;;;0.90;0.90;;;27.20;99.90;;;;;;4421096;32;20527;-75
2021/06/20 06:40:09;;;;;;;1.87;0.93;;;27.20;99.90;;;;;;4420231;32;20065;-76
2021/06/20 06:42:35;;;;;;;0.62;0.62;;;27.20;99.90;;;;;;4420757;32;20166;-76
2021/06/20 06:45:01;;;;;;;0.73;0.60;;;27.30;99.90;;;;;;4419527;32;20559;-75
2021/06/20 06:47:28;;;;;;;0.65;0.65;;;27.40;99.90;;;;;;4422903;32;20112;-75
2021/06/20 06:49:53;;;;;;;1.42;0.90;;;27.40;99.90;;;;;;4420364;32;20077;-75
2021/06/20 06:52:19;;;;;;;1.23;0.70;;;27.40;99.90;;;;;;4420346;32;20074;-76
2021/06/20 06:54:51;;;;;;;0.50;0.50;;;27.50;99.90;;;;;;4420806;32;20502;-76
2021/06/20 06:57:20;;;;;;;1.05;0.62;;;27.60;99.90;;;;;;4418893;32;20433;-75
2021/06/20 06:59:46;;;;;;;1.37;1.15;;;27.70;99.90;;;;;;4422243;32;20469;-76
2021/06/20 07:02:12;;;;;;;0.68;0.47;;;27.80;99.90;;;;;;4422694;32;20078;-79
2021/06/20 07:04:38;;;;;;;3.37;1.20;;;27.90;99.90;;;;;;4420913;32;20112;-76
2021/06/20 07:07:03;;;;;;;1.50;1.12;;;28.00;99.90;;;;;;4419256;32;20091;-76
2021/06/20 07:09:29;;;;;;;0.55;0.55;;;28.00;99.90;;;;;;4420556;32;20425;-75
2021/06/20 07:11:55;;;;;;;0.70;0.70;;;28.20;99.90;;;;;;4419627;32;20146;-75
2021/06/20 07:14:20;;;;;;;1.27;0.95;;;28.20;99.90;;;;;;4421285;32;20157;-76
2021/06/20 07:16:46;;;;;;;0.80;0.55;;;28.30;99.90;;;;;;4420784;32;20069;-76
2021/06/20 07:19:11;;;;;;;1.62;0.88;;;28.40;99.90;;;;;;4419765;32;20078;-75
2021/06/20 07:21:37;;;;;;;2.12;0.77;;;28.50;99.90;;;;;;4422409;32;20082;-77
2021/06/20 07:24:03;;;;;;;0.98;0.65;;;28.60;99.20;;;;;;4423425;32;20093;-75
2021/06/20 07:26:28;;;;;;;0.80;0.60;;;28.70;99.30;;;;;;4420967;32;20081;-75
2021/06/20 07:28:56;;;;;;;1.92;0.55;;;28.70;99.20;;;;;;4419827;32;20539;-75
2021/06/20 07:31:22;;;;;;;1.40;1.00;;;28.80;98.90;;;;;;4420069;32;20506;-75
2021/06/20 07:33:48;;;;;;;0.75;0.55;;;28.80;98.50;;;;;;4420452;32;20072;-75
2021/06/20 07:36:15;;;;;;;4.37;1.65;;;28.80;99.20;;;;;;4422893;32;20069;-75
2021/06/20 07:38:41;;;;;;;0.70;0.70;;;28.90;98.50;;;;;;4420339;32;20069;-75
2021/06/20 07:41:07;;;;;;;0.35;0.35;;;28.90;98.40;;;;;;4421809;32;20388;-76
2021/06/20 07:43:32;;;;;;;0.40;0.37;;;29.00;97.80;;;;;;4420560;32;20082;-75
2021/06/20 07:45:58;;;;;;;0.73;0.62;;;28.90;97.50;;;;;;4418669;32;20546;-76
2021/06/20 07:48:24;;;;;;;2.35;1.00;;;29.00;97.60;;;;;;4419913;32;20083;-76
2021/06/20 07:50:50;;;;;;;1.40;1.00;;;29.00;97.40;;;;;;4421103;32;20416;-76
2021/06/20 07:53:16;;;;;;;1.92;1.10;;;29.10;97.50;;;;;;4420279;32;20148;-76
2021/06/20 07:55:42;;;;;;;1.08;0.93;;;29.00;97.50;;;;;;4422170;32;20069;-75
2021/06/20 07:58:08;;;;;;;1.67;1.05;;;29.00;97.70;;;;;;4418800;32;20073;-75
2021/06/20 08:00:33;;;;;;;1.65;0.73;;;29.00;97.60;;;;;;4420159;32;20065;-75
2021/06/20 08:02:59;;;;;;;1.95;1.15;;;29.00;97.40;;;;;;4421988;32;20522;-74
2021/06/20 08:05:24;;;;;;;1.12;0.85;;;29.10;97.20;;;;;;4419912;32;20090;-76
2021/06/20 08:07:50;;;;;;;2.42;1.37;;;29.10;97.20;;;;;;4420501;32;20077;-74
2021/06/20 08:10:15;;;;;;;1.48;0.98;;;29.10;97.00;;;;;;4418543;32;20070;-75
2021/06/20 08:12:42;;;;;;;0.55;0.50;;;29.10;96.80;;;;;;4419887;32;20467;-75
2021/06/20 08:15:08;;;;;;;0.40;0.40;;;29.10;96.80;;;;;;4419095;32;20091;-75
2021/06/20 08:17:34;;;;;;;1.27;0.90;;;29.20;97.00;;;;;;4420428;32;20435;-75
2021/06/20 08:19:59;;;;;;;1.80;0.93;;;29.20;97.50;;;;;;4418824;32;20082;-75
2021/06/20 08:22:25;;;;;;;1.73;1.00;;;29.20;97.10;;;;;;4421358;32;20082;-75
2021/06/20 08:24:50;;;;;;;0.57;0.57;;;29.20;97.40;;;;;;4419085;32;20082;-75
2021/06/20 08:27:16;;;;;;;0.47;0.40;;;29.30;97.10;;;;;;4417953;32;20077;-75
2021/06/20 08:29:41;;;;;;;2.22;0.62;;;29.30;97.10;;;;;;4421882;32;20078;-75
2021/06/20 08:32:07;;;;;;;1.20;0.93;;;29.40;96.70;;;;;;4418720;32;20081;-75
2021/06/20 08:34:34;;;;;;;1.45;0.52;;;29.50;96.20;;;;;;4420367;32;20061;-75
2021/06/20 08:37:01;;;;;;;1.10;0.77;;;29.50;96.30;;;;;;4419457;32;20078;-75
2021/06/20 08:39:27;;;;;;;0.50;0.50;;;29.60;96.10;;;;;;4412969;32;20073;-75
2021/06/20 08:41:53;;;;;;;1.65;1.17;;;29.60;96.00;;;;;;4418532;32;20184;-75
2021/06/20 08:44:24;;;;;;;1.37;0.70;;;29.70;96.10;;;;;;4418942;32;20078;-75
2021/06/20 08:46:50;;;;;;;0.37;0.37;;;29.80;95.80;;;;;;4418747;32;20069;-75
2021/06/20 08:49:16;;;;;;;1.85;0.68;;;29.80;95.80;;;;;;4418622;32;20070;-75
2021/06/20 08:51:46;;;;;;;4.65;1.52;;;29.90;95.40;;;;;;4418856;32;20077;-75
2021/06/20 08:54:12;;;;;;;0.68;0.47;;;30.00;94.50;;;;;;4418269;32;20069;-74
2021/06/20 08:56:37;;;;;;;1.55;0.80;;;30.10;94.10;;;;;;4419056;32;20065;-74
2021/06/20 08:59:05;;;;;;;17.98;1.23;;;30.30;93.30;;;;;;4417848;32;20120;-75
2021/06/20 09:01:32;;;;;;;1.70;1.02;;;30.40;92.30;;;;;;4422376;32;20077;-75
2021/06/20 09:03:58;;;;;;;0.50;0.50;;;30.60;91.40;;;;;;4418510;32;20062;-75
2021/06/20 09:06:24;;;;;;;0.40;0.40;;;30.60;91.00;;;;;;4419238;32;20073;-75
2021/06/20 09:08:56;;;;;;;1.77;1.05;;;30.70;90.60;;;;;;4417815;32;20502;-74
2021/06/20 09:11:23;;;;;;;1.80;0.70;;;30.80;89.80;;;;;;4418255;32;20105;-74
2021/06/20 09:13:49;;;;;;;1.48;0.80;;;30.70;89.20;;;;;;4418644;32;20065;-75
2021/06/20 09:16:19;;;;;;;2.60;1.15;;;30.60;89.30;;;;;;4417821;32;20082;-74
2021/06/20 09:18:50;;;;;;;0.32;0.32;;;30.50;90.10;;;;;;4420992;32;20135;-74
2021/06/20 09:21:15;;;;;;;0.57;0.57;;;30.50;89.60;;;;;;4418361;32;20074;-74
2021/06/20 09:23:41;;;;;;;0.50;0.50;;;30.50;89.30;;;;;;4419459;32;20061;-74
2021/06/20 09:26:07;;;;;;;2.47;1.02;;;30.50;89.80;;;;;;4418350;32;20065;-74
2021/06/20 09:28:36;;;;;;;0.30;0.30;;;30.50;90.00;;;;;;4420632;32;20062;-75
2021/06/20 09:31:04;;;;;;;0.82;0.55;;;30.60;89.10;;;;;;4419470;32;20069;-74
2021/06/20 09:33:32;;;;;;;0.73;0.30;;;30.50;89.20;;;;;;4422236;32;20142;-75
2021/06/20 09:35:58;;;;;;;0.35;0.35;;;30.60;89.40;;;;;;4419015;32;20135;-75
2021/06/20 09:38:29;;;;;;;1.83;1.35;;;30.70;90.00;;;;;;4418710;32;20065;-74
2021/06/20 09:41:11;;;;;;;;;;;31.00;88.00;;;;;;4417557;32;74040;-74
2021/06/20 09:43:38;;;;;;;5.62;0.93;;;31.10;88.60;;;;;;4419133;32;20315;-75
2021/06/20 09:46:10;;;;;;;1.67;1.05;;;31.40;86.80;;;;;;4418702;32;20078;-74
2021/06/20 09:48:36;;;;;;;2.35;1.48;;;31.40;86.70;;;;;;4420937;32;20070;-75
2021/06/20 09:51:22;;;;;;;2.22;0.82;;;31.40;85.70;;;;;;4419615;32;20065;-74
2021/06/20 09:53:49;;;;;;;0.75;0.45;;;31.50;86.00;;;;;;4420460;32;20077;-74
2021/06/20 09:56:19;;;;;;;0.25;0.25;;;31.60;86.10;;;;;;4419768;32;20534;-74
2021/06/20 09:58:47;;;;;;;4.00;1.92;;;31.60;85.90;;;;;;4420278;32;20065;-74
2021/06/20 10:01:17;;;;;;;2.67;0.95;;;31.60;85.50;;;;;;4419273;32;20120;-74
2021/06/20 10:03:45;;;;;;;4.05;1.60;;;31.60;86.00;;;;;;4420915;32;20085;-74
2021/06/20 10:06:13;;;;;;;4.50;1.67;;;31.70;86.10;;;;;;4418254;32;20112;-74
2021/06/20 10:08:39;;;;;;;0.40;0.40;;;31.90;85.00;;;;;;4418973;32;20467;-73
2021/06/20 10:11:05;;;;;;;3.37;1.50;;;31.70;84.90;;;;;;4417266;32;20083;-74
2021/06/20 10:13:31;;;;;;;0.30;0.30;;;31.60;84.70;;;;;;4418527;32;20085;-74
2021/06/20 10:16:12;;;;;;;0.40;0.20;;;31.60;85.20;;;;;;4418239;32;20144;-74
2021/06/20 10:18:44;;;;;;;2.47;0.62;;;31.80;85.40;;;;;;4419677;32;20094;-74
2021/06/20 10:21:10;;;;;;;0.50;0.47;;;32.00;85.10;;;;;;4418471;32;20423;-75
2021/06/20 10:23:35;;;;;;;0.60;0.60;;;32.10;84.60;;;;;;4419091;32;20120;-75
2021/06/20 10:26:08;;;;;;;0.43;0.40;;;32.20;84.80;;;;;;4418940;32;20066;-75
2021/06/20 10:28:34;;;;;;;4.37;1.58;;;32.40;85.00;;;;;;4418519;32;20467;-75
2021/06/20 10:31:09;;;;;;;1.65;0.98;;;32.80;84.40;;;;;;4419055;32;20583;-74
2021/06/20 10:33:37;;;;;;;0.68;0.68;;;33.00;83.60;;;;;;4419793;32;20069;-75
2021/06/20 10:36:09;;;;;;;0.73;0.65;;;33.10;82.70;;;;;;4417406;32;20061;-75
2021/06/20 10:38:41;;;;;;;1.27;1.15;;;33.30;82.70;;;;;;4420671;32;20086;-75
2021/06/20 10:41:09;;;;;;;1.00;0.65;;;33.20;82.40;;;;;;4417611;32;20062;-74
2021/06/20 10:43:35;;;;;;;3.03;1.30;;;33.10;83.00;;;;;;4418455;32;20069;-76
2021/06/20 10:46:11;;;;;;;1.85;0.77;;;33.30;82.50;;;;;;4417278;32;20417;-75
2021/06/20 10:48:37;;;;;;;2.67;0.98;;;33.60;81.90;;;;;;4418132;32;20070;-75
2021/06/20 10:51:03;;;;;;;0.93;0.82;;;33.80;80.70;;;;;;4420028;32;20535;-75
2021/06/20 10:53:40;;;;;;;3.25;1.27;;;33.80;80.00;;;;;;4417290;32;20081;-74
2021/06/20 10:56:06;;;;;;;2.75;1.30;;;33.80;79.80;;;;;;4417876;32;20113;-75
2021/06/20 10:58:34;;;;;;;2.17;1.42;;;33.90;80.10;;;;;;4419515;32;20077;-75
2021/06/20 11:01:10;;;;;;;1.87;1.25;;;34.10;79.40;;;;;;4418593;32;20502;-74
2021/06/20 11:03:36;;;;;;;9.95;1.92;;;34.50;76.90;;;;;;4421138;32;20082;-74
2021/06/20 11:06:08;;;;;;;13.07;1.20;;;34.60;76.20;;;;;;4421200;32;20074;-74
2021/06/20 11:08:38;;;;;;;1.75;0.95;;;34.60;74.30;;;;;;4402973;32;20873;-74
2021/06/20 11:11:09;;;;;;;9.40;1.17;;;34.50;73.70;;;;;;4419321;32;20078;-74
2021/06/20 11:13:36;;;;;;;1.55;1.02;;;34.50;73.90;;;;;;4418518;32;20085;-74
2021/06/20 11:16:04;;;;;;;5.82;1.37;;;34.60;73.70;;;;;;4417781;32;20187;-74
2021/06/20 11:18:29;;;;;;;3.85;1.75;;;34.70;74.50;;;;;;4406475;32;20078;-74
2021/06/20 11:20:55;;;;;;;1.20;0.40;;;34.80;73.30;;;;;;4420039;32;20086;-74
2021/06/20 11:23:20;;;;;;;4.87;2.05;;;34.60;70.30;;;;;;4419733;32;20269;-74
2021/06/20 11:25:53;;;;;;;3.47;1.65;;;34.00;72.80;;;;;;4421518;32;20077;-74
2021/06/20 11:28:19;;;;;;;5.28;1.45;;;33.70;74.00;;;;;;4421390;32;20120;-74
2021/06/20 11:30:44;;;;;;;1.00;0.88;;;33.50;75.20;;;;;;4420587;32;20086;-74
2021/06/20 11:33:20;;;;;;;9.55;1.90;;;33.40;75.10;;;;;;4420617;32;20396;-75
2021/06/20 11:35:50;;;;;;;1.75;0.98;;;33.30;73.40;;;;;;4424938;32;20522;-74
2021/06/20 11:38:28;;;;;;;6.05;1.25;;;33.40;73.00;;;;;;4419337;32;20070;-75
2021/06/20 11:40:55;;;;;;;7.75;2.40;;;34.00;72.80;;;;;;4420474;32;20464;-75
2021/06/20 11:43:20;;;;;;;1.15;0.93;;;34.60;72.50;;;;;;4419469;32;20098;-74
2021/06/20 11:45:46;;;;;;;0.68;0.60;;;34.60;70.70;;;;;;4422709;32;20294;-74
2021/06/20 11:48:12;;;;;;;7.85;2.33;;;34.30;71.10;;;;;;4419874;32;20422;-76
2021/06/20 11:50:39;;;;;;;2.83;0.88;;;34.50;70.70;;;;;;4423260;32;20117;-74
2021/06/20 11:53:07;;;;;;;3.58;0.90;;;35.10;68.60;;;;;;4418856;32;20476;-74
2021/06/20 11:55:35;;;;;;;1.95;1.20;;;35.30;68.10;;;;;;4420955;32;20095;-75
2021/06/20 11:58:03;;;;;;;2.87;1.60;;;35.70;68.00;;;;;;4418201;32;20305;-75
2021/06/20 12:00:28;;;;;;;3.35;1.95;;;36.20;66.80;;;;;;4419126;32;20082;-74
2021/06/20 12:03:00;;;;;;;0.68;0.68;;;35.60;67.00;;;;;;4422245;32;20082;-75
2021/06/20 12:05:26;;;;;;;0.73;0.62;;;35.30;68.10;;;;;;4420609;32;20462;-74
2021/06/20 12:07:57;;;;;;;0.60;0.52;;;35.30;68.00;;;;;;4418767;32;20188;-75
2021/06/20 12:10:22;;;;;;;13.80;0.60;;;35.50;67.10;;;;;;4419718;32;20094;-75
2021/06/20 12:12:58;;;;;;;0.90;0.65;;;35.70;66.00;;;;;;4419593;32;20471;-75
2021/06/20 12:15:23;;;;;;;5.68;1.05;;;36.10;64.40;;;;;;4420183;32;20121;-75
2021/06/20 12:17:50;;;;;;;2.05;1.02;;;36.80;61.00;;;;;;4421982;32;20060;-75
2021/06/20 12:20:31;;;;;;;0.60;0.60;;;36.90;61.70;;;;;;4419521;32;20094;-75
2021/06/20 12:22:57;;;;;;;2.95;1.52;;;36.50;63.30;;;;;;4421692;32;20099;-75
2021/06/20 12:25:22;;;;;;;2.92;1.35;;;36.70;64.00;;;;;;4421611;32;20116;-75
2021/06/20 12:27:48;;;;;;;0.90;0.65;;;36.90;62.20;;;;;;4419294;32;20124;-75
2021/06/20 12:30:17;;;;;;;2.33;1.20;;;37.40;61.80;;;;;;4418673;32;20519;-75
2021/06/20 12:32:44;;;;;;;0.55;0.50;;;38.20;61.10;;;;;;4409268;32;20124;-75
2021/06/20 12:35:20;;;;;;;0.93;0.80;;;38.50;60.10;;;;;;4420066;32;20448;-75
2021/06/20 12:37:46;;;;;;;2.50;1.15;;;38.50;59.30;;;;;;4421524;32;20073;-75
2021/06/20 12:40:17;;;;;;;1.90;1.05;;;38.30;59.30;;;;;;4418844;32;20101;-75
2021/06/20 12:42:45;;;;;;;1.33;1.17;;;37.20;61.20;;;;;;4421631;32;20082;-75
2021/06/20 12:45:31;;;;;;;0.68;0.55;;;36.30;63.50;;;;;;4418854;32;20120;-75